Time;durP1;ratioP1;P1;durP2;ratioP2;P2;SDS_P1;SDS_P2;PMS_P1;PMS_P2;Temp;Humidity;BMP_temperature;BMP_pressure;BME280_temperature;BME280_humidity;BME280_pressure;Samples;Min_cycle;Max_cycle;Signal;HPM_P1;HPM_P2
2023/09/14 00:00:15;;;;;;;29.25;20.75;;;;;;;;;;2073855;28;20042;-58
2023/09/14 00:01:16;;;;;;;26.08;20.45;;;;;;;;;;2074195;28;20038;-58
2023/09/14 00:02:17;;;;;;;29.08;21.48;;;;;;;;;;2073226;28;20065;-58
2023/09/14 00:03:18;;;;;;;27.27;20.52;;;;;;;;;;2073302;28;20133;-58
2023/09/14 00:04:18;;;;;;;28.45;20.45;;;;;;;;;;2073762;28;20057;-59
2023/09/14 00:05:19;;;;;;;25.27;21.02;;;;;;;;;;2073864;28;20403;-59
2023/09/14 00:06:20;;;;;;;29.40;21.92;;;;;;;;;;2073821;28;20497;-58
2023/09/14 00:07:20;;;;;;;28.20;21.75;;;;;;;;;;2073916;28;20053;-58
2023/09/14 00:08:21;;;;;;;29.63;21.17;;;;;;;;;;2073895;28;20053;-58
2023/09/14 00:09:22;;;;;;;29.02;22.65;;;;;;;;;;2073814;28;20045;-58
2023/09/14 00:10:23;;;;;;;31.08;21.73;;;;;;;;;;2073615;28;20060;-56
2023/09/14 00:11:24;;;;;;;27.73;21.02;;;;;;;;;;2073735;28;20046;-58
2023/09/14 00:12:25;;;;;;;30.92;22.13;;;;;;;;;;2073840;28;20041;-58
2023/09/14 00:13:25;;;;;;;29.05;21.05;;;;;;;;;;2073628;28;20045;-58
2023/09/14 00:14:26;;;;;;;27.13;20.92;;;;;;;;;;2073692;28;20064;-59
2023/09/14 00:15:27;;;;;;;26.52;20.77;;;;;;;;;;2073799;28;20460;-59
2023/09/14 00:16:27;;;;;;;25.08;20.15;;;;;;;;;;2073806;28;20465;-58
2023/09/14 00:17:28;;;;;;;26.23;19.65;;;;;;;;;;2073077;28;20065;-58
2023/09/14 00:18:29;;;;;;;31.20;21.33;;;;;;;;;;2073805;28;20045;-59
2023/09/14 00:19:30;;;;;;;27.05;21.30;;;;;;;;;;2073511;28;20038;-58
2023/09/14 00:20:31;;;;;;;27.27;20.77;;;;;;;;;;2073933;28;20034;-58
2023/09/14 00:21:32;;;;;;;27.15;20.92;;;;;;;;;;2073182;28;20050;-58
2023/09/14 00:22:32;;;;;;;26.00;20.55;;;;;;;;;;2073767;28;20450;-58
2023/09/14 00:23:33;;;;;;;26.80;20.63;;;;;;;;;;2073770;28;20398;-58
2023/09/14 00:24:34;;;;;;;25.40;20.05;;;;;;;;;;2073782;28;20053;-58
2023/09/14 00:25:35;;;;;;;25.70;19.80;;;;;;;;;;2073757;28;20030;-58
2023/09/14 00:26:36;;;;;;;28.80;21.45;;;;;;;;;;2073622;28;20565;-58
2023/09/14 00:27:37;;;;;;;25.48;17.98;;;;;;;;;;2073819;28;20545;-58
2023/09/14 00:28:39;;;;;;;25.67;18.13;;;;;;;;;;2072887;28;20042;-58
2023/09/14 00:29:40;;;;;;;26.00;19.13;;;;;;;;;;2072594;28;20387;-58
2023/09/14 00:30:40;;;;;;;26.23;20.95;;;;;;;;;;2073716;28;20478;-58
2023/09/14 00:31:41;;;;;;;22.88;18.35;;;;;;;;;;2073870;28;20042;-58
2023/09/14 00:32:42;;;;;;;26.98;19.13;;;;;;;;;;2073984;28;20057;-58
2023/09/14 00:33:43;;;;;;;26.50;19.20;;;;;;;;;;2073103;28;20038;-58
2023/09/14 00:34:44;;;;;;;23.40;17.75;;;;;;;;;;2073250;28;20042;-58
2023/09/14 00:35:45;;;;;;;25.45;19.17;;;;;;;;;;2072999;28;20373;-58
2023/09/14 00:36:46;;;;;;;25.35;18.45;;;;;;;;;;2073138;28;20049;-59
2023/09/14 00:37:47;;;;;;;28.40;19.48;;;;;;;;;;2073681;28;20115;-58
2023/09/14 00:38:48;;;;;;;24.23;18.35;;;;;;;;;;2073935;28;20033;-58
2023/09/14 00:39:48;;;;;;;24.95;19.80;;;;;;;;;;2072927;28;20038;-58
2023/09/14 00:40:51;;;;;;;27.83;20.73;;;;;;;;;;2073068;28;20041;-58
2023/09/14 00:41:52;;;;;;;26.77;20.08;;;;;;;;;;2072703;28;20038;-59
2023/09/14 00:42:52;;;;;;;28.40;21.13;;;;;;;;;;2072509;28;20042;-58
2023/09/14 00:43:53;;;;;;;26.83;20.73;;;;;;;;;;2065190;28;20061;-58
2023/09/14 00:44:54;;;;;;;31.33;21.08;;;;;;;;;;2073198;28;20421;-58
2023/09/14 00:45:55;;;;;;;26.67;20.70;;;;;;;;;;2073673;28;20053;-58
2023/09/14 00:46:55;;;;;;;26.83;19.90;;;;;;;;;;2073040;28;20121;-58
2023/09/14 00:47:59;;;;;;;25.13;20.13;;;;;;;;;;2073158;28;20046;-58
2023/09/14 00:49:01;;;;;;;27.40;20.13;;;;;;;;;;2072629;28;20038;-58
2023/09/14 00:50:02;;;;;;;27.63;21.00;;;;;;;;;;2057088;28;20529;-59
2023/09/14 00:51:03;;;;;;;27.45;21.10;;;;;;;;;;2064822;28;20066;-58
2023/09/14 00:52:04;;;;;;;27.02;20.45;;;;;;;;;;2072759;28;20051;-59
2023/09/14 00:53:06;;;;;;;28.38;21.77;;;;;;;;;;2056774;28;20062;-58
2023/09/14 00:54:07;;;;;;;28.23;20.65;;;;;;;;;;2064515;28;20047;-59
2023/09/14 00:55:07;;;;;;;27.77;21.15;;;;;;;;;;2072979;28;20053;-59
2023/09/14 00:56:08;;;;;;;27.98;20.60;;;;;;;;;;2064617;28;20054;-58
2023/09/14 00:57:09;;;;;;;28.92;21.70;;;;;;;;;;2073189;28;20029;-59
2023/09/14 00:58:15;;;;;;;27.67;21.75;;;;;;;;;;2072771;28;20052;-59
2023/09/14 00:59:15;;;;;;;28.30;21.33;;;;;;;;;;2073520;28;20042;-58
2023/09/14 01:00:16;;;;;;;30.05;22.08;;;;;;;;;;2072955;28;20042;-57
2023/09/14 01:01:17;;;;;;;29.85;22.10;;;;;;;;;;2073636;28;20165;-58
2023/09/14 01:02:18;;;;;;;28.08;21.73;;;;;;;;;;2072542;28;20509;-59
2023/09/14 01:03:18;;;;;;;28.90;21.48;;;;;;;;;;2064840;28;20053;-58
2023/09/14 01:04:20;;;;;;;30.83;22.92;;;;;;;;;;2064716;28;20140;-59
2023/09/14 01:05:21;;;;;;;28.95;21.63;;;;;;;;;;2072507;28;20121;-58
2023/09/14 01:06:24;;;;;;;32.33;23.33;;;;;;;;;;2072648;28;20064;-58
2023/09/14 01:07:25;;;;;;;29.65;22.02;;;;;;;;;;2073045;28;20046;-59
2023/09/14 01:08:26;;;;;;;32.55;22.67;;;;;;;;;;2072710;28;20050;-59
2023/09/14 01:09:26;;;;;;;28.50;21.83;;;;;;;;;;2072404;28;20473;-58
2023/09/14 01:10:28;;;;;;;28.20;21.73;;;;;;;;;;2073022;28;20049;-58
2023/09/14 01:11:30;;;;;;;32.63;24.35;;;;;;;;;;2057319;28;20046;-58
2023/09/14 01:12:32;;;;;;;36.22;23.27;;;;;;;;;;2065159;28;20042;-59
2023/09/14 01:13:33;;;;;;;30.33;23.40;;;;;;;;;;2073039;28;20393;-59
2023/09/14 01:14:45;;;;;;;29.15;21.88;;;;;;;;;;2065026;28;20251;-59
2023/09/14 01:15:51;;;;;;;31.48;23.38;;;;;;;;;;2057876;28;20039;-59
2023/09/14 01:17:18;;;;;;;29.08;22.50;;;;;;;;;;2065019;28;20053;-58
2023/09/14 01:18:21;;;;;;;34.55;24.27;;;;;;;;;;2053231;28;20043;-58
2023/09/14 01:19:38;;;;;;;31.67;22.70;;;;;;;;;;2065097;28;20038;-58
2023/09/14 01:20:52;;;;;;;32.45;23.33;;;;;;;;;;2061428;28;20046;-59
2023/09/14 01:21:56;;;;;;;37.08;23.95;;;;;;;;;;2058529;28;20051;-58
2023/09/14 01:23:15;;;;;;;32.20;23.25;;;;;;;;;;2057532;28;20049;-58
2023/09/14 01:24:29;;;;;;;31.35;22.80;;;;;;;;;;2073087;28;20478;-58
2023/09/14 01:25:37;;;;;;;33.58;23.33;;;;;;;;;;2074375;28;20026;-58
2023/09/14 01:26:37;;;;;;;33.00;23.73;;;;;;;;;;2066919;28;20057;-58
2023/09/14 01:27:38;;;;;;;34.58;23.50;;;;;;;;;;2065725;28;20058;-59
2023/09/14 01:28:39;;;;;;;33.40;23.23;;;;;;;;;;2074584;28;20034;-59
2023/09/14 01:29:40;;;;;;;32.13;24.00;;;;;;;;;;2074316;28;20038;-58
2023/09/14 01:30:44;;;;;;;30.40;23.17;;;;;;;;;;2066455;28;20057;-59
2023/09/14 01:31:44;;;;;;;33.50;22.83;;;;;;;;;;2066327;28;20050;-58
2023/09/14 01:32:45;;;;;;;34.88;24.38;;;;;;;;;;2066265;28;20080;-59
2023/09/14 01:33:48;;;;;;;33.80;23.98;;;;;;;;;;2065887;28;20042;-58
2023/09/14 01:34:49;;;;;;;32.67;23.90;;;;;;;;;;2066778;28;20045;-58
2023/09/14 01:35:52;;;;;;;33.78;23.23;;;;;;;;;;2066020;28;20390;-58
2023/09/14 01:36:53;;;;;;;33.92;23.83;;;;;;;;;;2066067;28;20042;-59
2023/09/14 01:37:54;;;;;;;30.90;23.65;;;;;;;;;;2066244;28;20042;-58
2023/09/14 01:38:56;;;;;;;31.15;23.60;;;;;;;;;;2074358;28;20041;-58
2023/09/14 01:39:57;;;;;;;28.08;21.17;;;;;;;;;;2073811;28;20049;-58
2023/09/14 01:40:58;;;;;;;28.92;21.85;;;;;;;;;;2074075;28;20588;-58
2023/09/14 01:41:59;;;;;;;32.63;22.50;;;;;;;;;;2074055;28;20474;-58
2023/09/14 01:43:01;;;;;;;33.33;22.92;;;;;;;;;;2066415;28;20038;-58
2023/09/14 01:44:02;;;;;;;29.13;22.95;;;;;;;;;;2074316;28;20034;-58
2023/09/14 01:45:03;;;;;;;31.92;22.92;;;;;;;;;;2074027;28;20112;-58
2023/09/14 01:46:03;;;;;;;29.15;21.95;;;;;;;;;;2065908;28;20042;-58
2023/09/14 01:47:05;;;;;;;28.85;22.10;;;;;;;;;;2057638;28;20054;-58
2023/09/14 01:48:06;;;;;;;31.42;23.52;;;;;;;;;;2066239;28;20077;-58
2023/09/14 01:49:06;;;;;;;28.25;21.45;;;;;;;;;;2074360;28;20038;-58
2023/09/14 01:50:07;;;;;;;29.08;22.15;;;;;;;;;;2074004;28;20045;-59
2023/09/14 01:51:08;;;;;;;30.90;21.65;;;;;;;;;;2074977;28;20498;-58
2023/09/14 01:52:09;;;;;;;31.17;21.77;;;;;;;;;;2074855;28;20133;-58
2023/09/14 01:53:10;;;;;;;31.90;22.83;;;;;;;;;;2074471;28;20050;-58
2023/09/14 01:54:11;;;;;;;31.02;22.30;;;;;;;;;;2066158;28;20414;-58
2023/09/14 01:55:12;;;;;;;29.08;22.23;;;;;;;;;;2066254;28;20081;-58
2023/09/14 01:56:14;;;;;;;29.33;21.55;;;;;;;;;;2066579;28;20042;-59
2023/09/14 01:57:15;;;;;;;27.92;19.70;;;;;;;;;;2065786;28;20399;-59
2023/09/14 01:58:15;;;;;;;28.88;22.40;;;;;;;;;;2074149;28;20473;-59
2023/09/14 01:59:16;;;;;;;30.23;22.15;;;;;;;;;;2073823;28;20041;-58
2023/09/14 02:00:17;;;;;;;30.10;21.55;;;;;;;;;;2065118;28;20053;-58
2023/09/14 02:01:19;;;;;;;29.85;21.85;;;;;;;;;;2074110;28;20049;-59
2023/09/14 02:02:23;;;;;;;29.05;22.17;;;;;;;;;;2074163;28;20398;-58
2023/09/14 02:03:24;;;;;;;25.35;20.25;;;;;;;;;;2074190;28;20053;-59
2023/09/14 02:04:24;;;;;;;28.02;20.88;;;;;;;;;;2074822;28;20046;-58
2023/09/14 02:05:25;;;;;;;29.02;21.67;;;;;;;;;;2074573;28;20485;-58
2023/09/14 02:06:26;;;;;;;28.90;20.88;;;;;;;;;;2065658;28;20053;-58
2023/09/14 02:07:27;;;;;;;32.13;22.30;;;;;;;;;;2073912;28;20053;-58
2023/09/14 02:08:30;;;;;;;29.75;21.77;;;;;;;;;;2074860;28;20053;-58
2023/09/14 02:09:30;;;;;;;29.83;21.65;;;;;;;;;;2074338;28;20038;-58
2023/09/14 02:10:31;;;;;;;28.33;20.90;;;;;;;;;;2074861;28;20432;-59
2023/09/14 02:11:32;;;;;;;26.33;20.38;;;;;;;;;;2074722;28;20041;-59
2023/09/14 02:12:33;;;;;;;29.40;21.88;;;;;;;;;;2074666;28;20375;-59
2023/09/14 02:13:34;;;;;;;27.35;21.02;;;;;;;;;;2073844;28;20065;-59
2023/09/14 02:14:35;;;;;;;29.75;21.45;;;;;;;;;;2073830;28;20088;-58
2023/09/14 02:15:36;;;;;;;28.85;20.45;;;;;;;;;;2073718;28;20041;-58
2023/09/14 02:16:36;;;;;;;25.90;20.35;;;;;;;;;;2074264;28;20390;-58
2023/09/14 02:17:37;;;;;;;28.85;20.20;;;;;;;;;;2073840;28;20058;-58
2023/09/14 02:18:38;;;;;;;26.35;20.27;;;;;;;;;;2066083;28;20138;-58
2023/09/14 02:19:39;;;;;;;24.35;19.55;;;;;;;;;;2074031;28;20062;-58
2023/09/14 02:20:39;;;;;;;23.25;19.25;;;;;;;;;;2073740;28;20422;-59
2023/09/14 02:21:41;;;;;;;26.80;20.08;;;;;;;;;;2074001;28;20049;-59
2023/09/14 02:22:42;;;;;;;26.92;20.08;;;;;;;;;;2074776;28;20374;-59
2023/09/14 02:23:43;;;;;;;25.13;19.17;;;;;;;;;;2074164;28;20041;-59
2023/09/14 02:24:44;;;;;;;26.02;19.05;;;;;;;;;;2065905;28;20096;-59
2023/09/14 02:25:45;;;;;;;23.38;18.05;;;;;;;;;;2065912;28;20062;-59
2023/09/14 02:26:46;;;;;;;25.42;18.17;;;;;;;;;;2074100;28;20045;-59
2023/09/14 02:27:47;;;;;;;24.30;18.80;;;;;;;;;;2073745;28;20049;-58
2023/09/14 02:28:48;;;;;;;24.33;18.20;;;;;;;;;;2073674;28;20119;-58
2023/09/14 02:29:52;;;;;;;22.90;17.38;;;;;;;;;;2074256;28;20030;-58
2023/09/14 02:30:52;;;;;;;24.00;17.70;;;;;;;;;;2074076;28;20553;-58
2023/09/14 02:31:53;;;;;;;23.08;17.20;;;;;;;;;;2073969;28;20042;-58
2023/09/14 02:32:54;;;;;;;23.05;17.33;;;;;;;;;;2074797;28;20028;-58
2023/09/14 02:33:55;;;;;;;21.05;16.60;;;;;;;;;;2074556;28;20044;-58
2023/09/14 02:34:56;;;;;;;20.20;16.33;;;;;;;;;;2074622;28;20033;-59
2023/09/14 02:35:56;;;;;;;23.20;17.55;;;;;;;;;;2074535;28;20057;-58
2023/09/14 02:36:57;;;;;;;21.60;16.92;;;;;;;;;;2074017;28;20026;-58
2023/09/14 02:37:58;;;;;;;20.95;17.05;;;;;;;;;;2065452;28;20045;-59
2023/09/14 02:38:59;;;;;;;22.60;16.92;;;;;;;;;;2057744;28;20536;-58
2023/09/14 02:39:59;;;;;;;22.45;16.98;;;;;;;;;;2073868;28;20508;-58
2023/09/14 02:41:00;;;;;;;19.50;15.65;;;;;;;;;;2073255;28;20038;-58
2023/09/14 02:42:01;;;;;;;19.85;16.85;;;;;;;;;;2074147;28;20042;-58
2023/09/14 02:43:02;;;;;;;23.23;16.63;;;;;;;;;;2073628;28;20398;-58
2023/09/14 02:44:02;;;;;;;21.73;16.15;;;;;;;;;;2074681;28;20095;-59
2023/09/14 02:45:06;;;;;;;22.77;16.83;;;;;;;;;;2073846;28;20458;-58
2023/09/14 02:46:07;;;;;;;25.15;16.77;;;;;;;;;;2074030;28;20462;-59
2023/09/14 02:47:08;;;;;;;20.75;15.43;;;;;;;;;;2073564;28;20410;-58
2023/09/14 02:48:09;;;;;;;21.00;15.38;;;;;;;;;;2066168;28;20050;-58
2023/09/14 02:49:10;;;;;;;19.00;15.48;;;;;;;;;;2073507;28;20074;-59
2023/09/14 02:50:10;;;;;;;21.75;15.25;;;;;;;;;;2074411;28;20394;-58
2023/09/14 02:51:11;;;;;;;20.70;15.43;;;;;;;;;;2074729;28;20459;-58
2023/09/14 02:52:12;;;;;;;20.35;16.27;;;;;;;;;;2074331;28;20037;-58
2023/09/14 02:53:12;;;;;;;20.02;15.93;;;;;;;;;;2074421;28;20046;-58
2023/09/14 02:54:13;;;;;;;24.95;16.77;;;;;;;;;;2073466;28;20073;-59
2023/09/14 02:55:14;;;;;;;21.85;16.05;;;;;;;;;;2065728;28;20088;-58
2023/09/14 02:56:15;;;;;;;21.67;15.50;;;;;;;;;;2065455;28;20042;-58
2023/09/14 02:57:16;;;;;;;22.70;17.45;;;;;;;;;;2073464;28;20078;-58
2023/09/14 02:58:16;;;;;;;24.67;16.38;;;;;;;;;;2065543;28;20046;-58
2023/09/14 02:59:17;;;;;;;24.00;17.05;;;;;;;;;;2065669;28;20053;-58
2023/09/14 03:00:18;;;;;;;21.80;15.88;;;;;;;;;;2065829;28;20129;-58
2023/09/14 03:01:20;;;;;;;19.90;15.80;;;;;;;;;;2065724;28;20050;-58
2023/09/14 03:02:21;;;;;;;25.90;16.20;;;;;;;;;;2065753;28;20080;-58
2023/09/14 03:03:22;;;;;;;24.48;15.68;;;;;;;;;;2057247;28;20046;-58
2023/09/14 03:04:23;;;;;;;19.80;15.45;;;;;;;;;;2065338;28;20050;-58
2023/09/14 03:05:24;;;;;;;22.45;15.45;;;;;;;;;;2074256;28;20038;-59
2023/09/14 03:06:25;;;;;;;22.33;17.30;;;;;;;;;;2073416;28;20053;-59
2023/09/14 03:07:26;;;;;;;20.48;16.85;;;;;;;;;;2064928;28;20058;-59
2023/09/14 03:08:28;;;;;;;21.65;17.02;;;;;;;;;;2065384;28;20050;-59
2023/09/14 03:09:29;;;;;;;21.05;15.95;;;;;;;;;;2073693;28;20041;-58
2023/09/14 03:10:30;;;;;;;23.30;16.50;;;;;;;;;;2065369;28;20038;-59
2023/09/14 03:11:31;;;;;;;21.08;15.88;;;;;;;;;;2073613;28;20421;-58
2023/09/14 03:12:32;;;;;;;22.48;16.67;;;;;;;;;;2073666;28;20041;-58
2023/09/14 03:13:32;;;;;;;21.55;16.38;;;;;;;;;;2065123;28;20077;-58
2023/09/14 03:14:33;;;;;;;20.33;15.65;;;;;;;;;;2073288;28;20045;-58
2023/09/14 03:15:34;;;;;;;23.77;16.98;;;;;;;;;;2073558;28;20046;-58
2023/09/14 03:16:35;;;;;;;20.27;16.30;;;;;;;;;;2065734;28;20038;-58
2023/09/14 03:17:36;;;;;;;20.60;15.77;;;;;;;;;;2065015;28;20141;-58
2023/09/14 03:18:37;;;;;;;24.15;17.30;;;;;;;;;;2065190;28;20089;-59
2023/09/14 03:19:38;;;;;;;20.42;15.95;;;;;;;;;;2065087;28;20050;-59
2023/09/14 03:20:38;;;;;;;23.13;16.48;;;;;;;;;;2065202;28;20050;-58
2023/09/14 03:21:39;;;;;;;22.45;16.80;;;;;;;;;;2065677;28;20400;-58
2023/09/14 03:22:40;;;;;;;20.80;15.98;;;;;;;;;;2065365;28;20049;-58
2023/09/14 03:23:41;;;;;;;23.75;17.02;;;;;;;;;;2073617;28;20153;-58
2023/09/14 03:24:41;;;;;;;21.63;16.85;;;;;;;;;;2074079;28;20030;-58
2023/09/14 03:25:42;;;;;;;25.95;17.10;;;;;;;;;;2073668;28;20386;-58
2023/09/14 03:26:43;;;;;;;23.27;17.08;;;;;;;;;;2064891;28;20097;-58
2023/09/14 03:27:44;;;;;;;23.20;16.92;;;;;;;;;;2065361;28;20074;-59
2023/09/14 03:28:46;;;;;;;22.08;16.63;;;;;;;;;;2065476;28;20606;-58
2023/09/14 03:29:47;;;;;;;22.77;16.80;;;;;;;;;;2065216;28;20042;-58
2023/09/14 03:30:48;;;;;;;22.20;17.25;;;;;;;;;;2065628;28;20041;-58
2023/09/14 03:31:50;;;;;;;26.10;18.65;;;;;;;;;;2064871;28;20038;-58
2023/09/14 03:32:51;;;;;;;24.48;17.38;;;;;;;;;;2073483;28;20034;-58
2023/09/14 03:33:52;;;;;;;24.80;16.83;;;;;;;;;;2073147;28;20038;-59
2023/09/14 03:34:52;;;;;;;26.35;17.90;;;;;;;;;;2073188;28;20492;-58
2023/09/14 03:35:53;;;;;;;24.48;17.10;;;;;;;;;;2065325;28;20517;-59
2023/09/14 03:36:54;;;;;;;25.23;17.60;;;;;;;;;;2073454;28;20026;-59
2023/09/14 03:37:55;;;;;;;25.00;17.98;;;;;;;;;;2065294;28;20073;-58
2023/09/14 03:38:55;;;;;;;24.42;18.38;;;;;;;;;;2065283;28;20041;-59
2023/09/14 03:40:01;;;;;;;23.30;17.58;;;;;;;;;;2073093;28;20042;-58
2023/09/14 03:41:02;;;;;;;27.13;19.20;;;;;;;;;;2065286;28;20399;-58
2023/09/14 03:42:03;;;;;;;23.52;17.90;;;;;;;;;;2064935;28;20054;-58
2023/09/14 03:43:05;;;;;;;26.20;17.40;;;;;;;;;;2064694;28;20053;-59
2023/09/14 03:44:06;;;;;;;22.58;16.55;;;;;;;;;;2065301;28;20042;-58
2023/09/14 03:45:07;;;;;;;24.98;17.38;;;;;;;;;;2073043;28;20050;-58
2023/09/14 03:46:08;;;;;;;27.52;18.98;;;;;;;;;;2073927;28;20405;-58
2023/09/14 03:47:09;;;;;;;25.88;18.75;;;;;;;;;;2073847;28;20069;-58
2023/09/14 03:48:10;;;;;;;26.50;19.52;;;;;;;;;;2073326;28;20176;-59
2023/09/14 03:49:10;;;;;;;23.48;18.00;;;;;;;;;;2073380;28;20490;-59
2023/09/14 03:50:11;;;;;;;26.35;18.42;;;;;;;;;;2074003;28;20080;-58
2023/09/14 03:51:12;;;;;;;29.40;19.90;;;;;;;;;;2073523;28;20042;-58
2023/09/14 03:52:12;;;;;;;27.35;18.40;;;;;;;;;;2065200;28;20043;-58
2023/09/14 03:53:13;;;;;;;25.63;18.23;;;;;;;;;;2073533;28;20054;-58
2023/09/14 03:54:14;;;;;;;28.63;19.23;;;;;;;;;;2073085;28;20037;-58
2023/09/14 03:55:15;;;;;;;28.27;19.92;;;;;;;;;;2073345;28;20041;-58
2023/09/14 03:56:15;;;;;;;27.35;19.15;;;;;;;;;;2065355;28;20498;-58
2023/09/14 03:57:16;;;;;;;27.13;17.80;;;;;;;;;;2073292;28;20064;-57
2023/09/14 03:58:17;;;;;;;29.00;19.73;;;;;;;;;;2072630;28;20053;-58
2023/09/14 03:59:18;;;;;;;28.25;19.95;;;;;;;;;;2057301;28;20043;-58
2023/09/14 04:00:19;;;;;;;27.40;19.02;;;;;;;;;;2064940;28;20054;-58
2023/09/14 04:01:21;;;;;;;25.15;18.85;;;;;;;;;;2073370;28;20038;-58
2023/09/14 04:02:23;;;;;;;28.80;19.27;;;;;;;;;;2073286;28;20034;-59
2023/09/14 04:03:24;;;;;;;27.55;19.42;;;;;;;;;;2073537;28;20041;-58
2023/09/14 04:04:25;;;;;;;30.85;20.80;;;;;;;;;;2072988;28;20406;-58
2023/09/14 04:05:26;;;;;;;28.48;19.85;;;;;;;;;;2073374;28;20046;-58
2023/09/14 04:06:27;;;;;;;27.20;20.67;;;;;;;;;;2073399;28;20145;-58
2023/09/14 04:07:27;;;;;;;27.45;20.00;;;;;;;;;;2081383;28;20497;-58
2023/09/14 04:08:28;;;;;;;28.17;20.13;;;;;;;;;;2081090;28;20056;-58
2023/09/14 04:09:29;;;;;;;28.30;20.55;;;;;;;;;;2074191;28;20026;-59
2023/09/14 04:10:30;;;;;;;27.00;19.88;;;;;;;;;;2073857;28;20065;-59
2023/09/14 04:11:31;;;;;;;30.58;20.98;;;;;;;;;;2073955;28;20176;-58
2023/09/14 04:12:31;;;;;;;29.60;20.23;;;;;;;;;;2073227;28;20041;-58
2023/09/14 04:13:33;;;;;;;31.98;21.58;;;;;;;;;;2073256;28;20041;-59
2023/09/14 04:14:37;;;;;;;27.50;21.42;;;;;;;;;;2073112;28;20367;-58
2023/09/14 04:15:39;;;;;;;27.63;19.77;;;;;;;;;;2065135;28;20042;-58
2023/09/14 04:16:39;;;;;;;31.05;21.15;;;;;;;;;;2064934;28;20058;-58
2023/09/14 04:17:40;;;;;;;30.63;20.58;;;;;;;;;;2072452;28;20045;-58
2023/09/14 04:18:41;;;;;;;32.20;21.13;;;;;;;;;;2064745;28;20109;-58
2023/09/14 04:19:43;;;;;;;30.85;21.80;;;;;;;;;;2073194;28;20033;-58
2023/09/14 04:20:46;;;;;;;31.42;22.27;;;;;;;;;;2072823;28;20048;-58
2023/09/14 04:21:46;;;;;;;32.22;22.27;;;;;;;;;;2065666;28;20045;-58
2023/09/14 04:22:48;;;;;;;33.00;22.30;;;;;;;;;;2065035;28;20133;-58
2023/09/14 04:23:49;;;;;;;33.15;22.70;;;;;;;;;;2073375;28;20038;-58
2023/09/14 04:24:50;;;;;;;32.33;22.60;;;;;;;;;;2072639;28;20502;-58
2023/09/14 04:25:51;;;;;;;31.77;21.92;;;;;;;;;;2073158;28;20030;-58
2023/09/14 04:26:51;;;;;;;32.50;22.88;;;;;;;;;;2073183;28;20038;-58
2023/09/14 04:27:52;;;;;;;32.72;22.20;;;;;;;;;;2065256;28;20043;-58
2023/09/14 04:28:53;;;;;;;34.00;23.63;;;;;;;;;;2073167;28;20092;-59
2023/09/14 04:29:53;;;;;;;33.03;23.30;;;;;;;;;;2072887;28;20475;-58
2023/09/14 04:30:57;;;;;;;34.42;23.33;;;;;;;;;;2072958;28;20470;-58
2023/09/14 04:31:59;;;;;;;31.08;21.92;;;;;;;;;;2073247;28;20039;-58
2023/09/14 04:33:00;;;;;;;33.45;22.40;;;;;;;;;;2072492;28;20425;-58
2023/09/14 04:34:01;;;;;;;33.00;23.23;;;;;;;;;;2065406;28;20042;-58
2023/09/14 04:35:03;;;;;;;34.13;23.00;;;;;;;;;;2072176;28;20136;-59
2023/09/14 04:36:06;;;;;;;35.20;22.63;;;;;;;;;;2072838;28;20478;-58
2023/09/14 04:37:08;;;;;;;35.17;24.25;;;;;;;;;;2065248;28;20053;-59
2023/09/14 04:38:09;;;;;;;32.65;23.17;;;;;;;;;;2064967;28;20152;-58
2023/09/14 04:39:10;;;;;;;36.83;23.25;;;;;;;;;;2064778;28;20046;-58
2023/09/14 04:40:11;;;;;;;33.40;22.88;;;;;;;;;;2073327;28;20048;-58
2023/09/14 04:41:12;;;;;;;32.75;22.75;;;;;;;;;;2072350;28;20042;-59
2023/09/14 04:42:13;;;;;;;36.42;24.25;;;;;;;;;;2080733;28;20045;-59
2023/09/14 04:43:14;;;;;;;34.88;22.77;;;;;;;;;;2073282;28;20049;-58
2023/09/14 04:44:14;;;;;;;33.22;22.42;;;;;;;;;;2064939;28;20038;-58
2023/09/14 04:45:15;;;;;;;32.80;23.85;;;;;;;;;;2073392;28;20512;-58
2023/09/14 04:46:16;;;;;;;33.60;23.40;;;;;;;;;;2073908;28;20057;-58
2023/09/14 04:47:17;;;;;;;32.35;22.75;;;;;;;;;;2072594;28;20057;-59
2023/09/14 04:48:18;;;;;;;31.38;22.33;;;;;;;;;;2064420;28;20407;-58
2023/09/14 04:49:18;;;;;;;33.20;22.80;;;;;;;;;;2064589;28;20061;-58
2023/09/14 04:50:19;;;;;;;31.70;23.90;;;;;;;;;;2064594;28;20046;-58
2023/09/14 04:51:22;;;;;;;32.78;23.80;;;;;;;;;;2064932;28;20043;-58
2023/09/14 04:52:22;;;;;;;32.92;22.95;;;;;;;;;;2073365;28;20478;-59
2023/09/14 04:53:24;;;;;;;31.25;22.70;;;;;;;;;;2064599;28;20073;-58
2023/09/14 04:54:25;;;;;;;33.90;23.58;;;;;;;;;;2064592;28;20503;-59
2023/09/14 04:55:26;;;;;;;35.53;24.77;;;;;;;;;;2073204;28;20038;-59
2023/09/14 04:56:26;;;;;;;35.00;23.45;;;;;;;;;;2072448;28;20140;-59
2023/09/14 04:57:28;;;;;;;39.53;23.33;;;;;;;;;;2064934;28;20049;-58
2023/09/14 04:58:28;;;;;;;32.38;22.40;;;;;;;;;;2057169;28;20050;-58
2023/09/14 04:59:29;;;;;;;36.83;25.95;;;;;;;;;;2064264;28;20081;-59
2023/09/14 05:00:30;;;;;;;34.88;23.23;;;;;;;;;;2065950;28;20074;-58
2023/09/14 05:01:31;;;;;;;32.85;22.58;;;;;;;;;;2066833;28;20049;-58
2023/09/14 05:02:32;;;;;;;33.78;23.50;;;;;;;;;;2066000;28;20462;-58
2023/09/14 05:03:33;;;;;;;31.60;23.63;;;;;;;;;;2074650;28;20048;-58
2023/09/14 05:04:33;;;;;;;35.58;24.30;;;;;;;;;;2066259;28;20089;-58
2023/09/14 05:05:34;;;;;;;33.17;22.95;;;;;;;;;;2066469;28;20058;-58
2023/09/14 05:06:37;;;;;;;38.55;27.02;;;;;;;;;;2066803;28;20225;-58
2023/09/14 05:07:39;;;;;;;38.30;25.05;;;;;;;;;;2066490;28;20532;-58
2023/09/14 05:08:41;;;;;;;34.50;22.98;;;;;;;;;;2066055;28;20058;-58
2023/09/14 05:09:42;;;;;;;34.47;24.02;;;;;;;;;;2066238;28;20034;-58
2023/09/14 05:10:43;;;;;;;37.92;24.48;;;;;;;;;;2066173;28;20498;-58
2023/09/14 05:11:44;;;;;;;38.45;26.08;;;;;;;;;;2066276;28;20038;-58
2023/09/14 05:12:45;;;;;;;36.58;26.25;;;;;;;;;;2066062;28;20101;-58
2023/09/14 05:13:45;;;;;;;36.47;25.10;;;;;;;;;;2066349;28;20053;-58
2023/09/14 05:14:47;;;;;;;40.53;26.67;;;;;;;;;;2066420;28;20038;-58
2023/09/14 05:15:47;;;;;;;40.20;26.45;;;;;;;;;;2065735;28;20050;-58
2023/09/14 05:16:50;;;;;;;38.90;26.33;;;;;;;;;;2066443;28;20038;-58
2023/09/14 05:17:50;;;;;;;34.65;25.05;;;;;;;;;;2066374;28;20058;-58
2023/09/14 05:18:51;;;;;;;38.10;25.48;;;;;;;;;;2074252;28;20133;-58
2023/09/14 05:19:52;;;;;;;37.35;26.02;;;;;;;;;;2075340;28;20033;-58
2023/09/14 05:20:53;;;;;;;40.78;26.75;;;;;;;;;;2074366;28;20042;-58
2023/09/14 05:21:53;;;;;;;39.33;26.27;;;;;;;;;;2066050;28;20038;-58
2023/09/14 05:22:54;;;;;;;37.95;27.17;;;;;;;;;;2066514;28;20042;-58
2023/09/14 05:23:55;;;;;;;40.38;27.15;;;;;;;;;;2065763;28;20087;-58
2023/09/14 05:24:55;;;;;;;38.70;26.70;;;;;;;;;;2065975;28;20077;-58
2023/09/14 05:25:56;;;;;;;39.05;26.02;;;;;;;;;;2074183;28;20053;-58
2023/09/14 05:26:57;;;;;;;42.70;29.75;;;;;;;;;;2074377;28;20050;-58
2023/09/14 05:27:58;;;;;;;39.72;28.25;;;;;;;;;;2065482;28;20093;-58
2023/09/14 05:28:59;;;;;;;41.60;28.63;;;;;;;;;;2066026;28;20042;-58
2023/09/14 05:29:59;;;;;;;45.38;29.60;;;;;;;;;;2065646;28;20524;-58
2023/09/14 05:31:00;;;;;;;46.63;33.50;;;;;;;;;;2074428;28;20390;-58
2023/09/14 05:32:01;;;;;;;48.92;32.55;;;;;;;;;;2074271;28;20172;-58
2023/09/14 05:33:02;;;;;;;42.58;29.98;;;;;;;;;;2066375;28;20035;-58
2023/09/14 05:34:03;;;;;;;46.25;31.45;;;;;;;;;;2066262;28;20478;-58
2023/09/14 05:35:06;;;;;;;40.17;25.10;;;;;;;;;;2066244;28;20137;-58
2023/09/14 05:36:07;;;;;;;36.80;24.17;;;;;;;;;;2066203;28;20406;-58
2023/09/14 05:37:07;;;;;;;38.88;24.98;;;;;;;;;;2065367;28;20046;-58
2023/09/14 05:38:08;;;;;;;37.45;25.60;;;;;;;;;;2065881;28;20093;-58
2023/09/14 05:39:09;;;;;;;40.53;27.05;;;;;;;;;;2074479;28;20042;-59
2023/09/14 05:40:11;;;;;;;40.83;26.70;;;;;;;;;;2074396;28;20049;-58
2023/09/14 05:41:13;;;;;;;35.40;23.05;;;;;;;;;;2074084;28;20481;-58
2023/09/14 05:42:16;;;;;;;36.13;24.48;;;;;;;;;;2066455;28;20034;-58
2023/09/14 05:43:17;;;;;;;36.97;25.17;;;;;;;;;;2066364;28;20038;-58
2023/09/14 05:44:17;;;;;;;39.70;24.92;;;;;;;;;;2074115;28;20050;-58
2023/09/14 05:45:18;;;;;;;35.05;24.13;;;;;;;;;;2066390;28;20577;-58
2023/09/14 05:46:20;;;;;;;33.00;23.40;;;;;;;;;;2066279;28;20045;-59
2023/09/14 05:47:20;;;;;;;32.15;23.23;;;;;;;;;;2074405;28;20064;-60
2023/09/14 05:48:21;;;;;;;37.50;24.20;;;;;;;;;;2074213;28;20090;-58
2023/09/14 05:49:22;;;;;;;31.77;22.17;;;;;;;;;;2074360;28;20038;-57
2023/09/14 05:50:23;;;;;;;29.52;22.15;;;;;;;;;;2066341;28;20034;-57
2023/09/14 05:51:24;;;;;;;40.20;24.30;;;;;;;;;;2066058;28;20080;-57
2023/09/14 05:52:24;;;;;;;35.58;23.65;;;;;;;;;;2066157;28;20038;-57
2023/09/14 05:53:25;;;;;;;35.88;23.80;;;;;;;;;;2066186;28;20034;-56
2023/09/14 05:54:26;;;;;;;33.65;23.35;;;;;;;;;;2065693;28;20053;-57
2023/09/14 05:55:27;;;;;;;27.45;20.00;;;;;;;;;;2074170;28;20049;-57
2023/09/14 05:56:28;;;;;;;34.28;21.90;;;;;;;;;;2066149;28;20046;-57